createdAt,value
2016-03-26T00:00:05.154Z,968.7
2016-03-26T00:01:05.157Z,968.73
2016-03-26T00:02:05.159Z,968.76
2016-03-26T00:03:05.162Z,968.79
2016-03-26T00:04:05.164Z,968.73
2016-03-26T00:05:05.168Z,968.78
2016-03-26T00:06:05.155Z,968.8
2016-03-26T00:07:05.158Z,968.8
2016-03-26T00:08:05.161Z,968.82
2016-03-26T00:09:05.163Z,968.84
2016-03-26T00:10:05.166Z,968.86
2016-03-26T00:11:05.169Z,968.83
2016-03-26T00:12:05.171Z,968.78
2016-03-26T00:13:05.158Z,968.77
2016-03-26T00:14:05.161Z,968.81
2016-03-26T00:15:05.163Z,968.84
2016-03-26T00:16:05.166Z,968.82
2016-03-26T00:17:05.185Z,968.84
2016-03-26T00:18:05.171Z,968.8
2016-03-26T00:19:05.158Z,968.84
2016-03-26T00:20:05.161Z,968.81
2016-03-26T00:21:05.179Z,968.87
2016-03-26T00:22:05.166Z,968.81
2016-03-26T00:23:05.168Z,968.88
2016-03-26T00:24:05.171Z,968.9
2016-03-26T00:25:05.190Z,968.94
2016-03-26T00:26:05.162Z,968.9
2016-03-26T00:27:05.165Z,968.9
2016-03-26T00:28:05.167Z,968.9
2016-03-26T00:29:05.170Z,968.87
2016-03-26T00:30:05.172Z,968.88
2016-03-26T00:31:05.175Z,968.86
2016-03-26T00:32:05.162Z,968.86
2016-03-26T00:33:05.164Z,968.85
2016-03-26T00:34:05.167Z,968.88
2016-03-26T00:35:05.170Z,968.86
2016-03-26T00:36:05.173Z,968.85
2016-03-26T00:37:05.175Z,968.84
2016-03-26T00:38:05.179Z,968.86
2016-03-26T00:39:05.166Z,968.84
2016-03-26T00:40:05.168Z,968.92
2016-03-26T00:41:05.171Z,968.9
2016-03-26T00:42:05.162Z,968.86
2016-03-26T00:43:05.164Z,968.88
2016-03-26T00:44:05.167Z,968.91
2016-03-26T00:45:05.170Z,968.86
2016-03-26T00:46:05.157Z,968.92
2016-03-26T00:47:05.159Z,968.89
2016-03-26T00:48:05.162Z,968.86
2016-03-26T00:49:05.165Z,968.84
2016-03-26T00:50:05.167Z,968.87
2016-03-26T00:51:05.170Z,968.87
2016-03-26T00:52:05.172Z,968.91
2016-03-26T00:53:05.161Z,968.93
2016-03-26T00:54:05.163Z,968.9
2016-03-26T00:55:05.166Z,968.91
2016-03-26T00:56:05.168Z,968.93
2016-03-26T00:57:05.171Z,968.92
2016-03-26T00:58:05.174Z,968.88
2016-03-26T00:59:05.161Z,968.85
2016-03-26T01:00:05.163Z,968.84
2016-03-26T01:01:05.166Z,968.85
2016-03-26T01:02:05.169Z,968.88
2016-03-26T01:03:05.172Z,968.86
2016-03-26T01:04:05.174Z,968.88
2016-03-26T01:05:05.160Z,968.91
2016-03-26T01:06:05.163Z,968.9
2016-03-26T01:07:05.167Z,968.92
2016-03-26T01:08:05.169Z,968.94
2016-03-26T01:09:05.172Z,968.95
2016-03-26T01:10:05.175Z,968.9
2016-03-26T01:11:05.162Z,968.96
2016-03-26T01:12:05.166Z,968.95
2016-03-26T01:13:05.184Z,968.97
2016-03-26T01:14:05.171Z,968.99
2016-03-26T01:15:05.174Z,968.99
2016-03-26T01:16:05.177Z,968.98
2016-03-26T01:17:05.179Z,968.96
2016-03-26T01:18:05.165Z,968.97
2016-03-26T01:19:05.168Z,968.96
2016-03-26T01:20:05.171Z,968.98
2016-03-26T01:21:05.174Z,968.96
2016-03-26T01:22:05.176Z,968.98
2016-03-26T01:23:05.179Z,969
2016-03-26T01:24:05.167Z,969.05
2016-03-26T01:25:05.169Z,969.04
2016-03-26T01:26:05.172Z,969.08
2016-03-26T01:27:05.175Z,969.08
2016-03-26T01:28:05.177Z,969.03
2016-03-26T01:29:05.180Z,969.01
2016-03-26T01:30:05.167Z,969
2016-03-26T01:31:05.170Z,969.01
2016-03-26T01:32:05.173Z,969.04
2016-03-26T01:33:05.174Z,969.04
2016-03-26T01:34:05.178Z,968.99
2016-03-26T01:35:05.180Z,969.01
2016-03-26T01:36:05.167Z,969.02
2016-03-26T01:37:05.169Z,969.03
2016-03-26T01:38:05.172Z,969.01
2016-03-26T01:39:05.175Z,969.06
2016-03-26T01:40:05.177Z,969.09
2016-03-26T01:41:05.181Z,969.12
2016-03-26T01:42:05.199Z,969.12
2016-03-26T01:43:05.171Z,969.11
2016-03-26T01:44:05.174Z,969.07
2016-03-26T01:45:05.177Z,969.14
2016-03-26T01:46:05.179Z,969.19
2016-03-26T01:47:05.181Z,969.19
2016-03-26T01:48:05.184Z,969.14
2016-03-26T01:49:05.171Z,969.17
2016-03-26T01:50:05.190Z,969.14
2016-03-26T01:51:05.176Z,969.2
2016-03-26T01:52:05.179Z,969.18
2016-03-26T01:53:05.182Z,969.2
2016-03-26T01:54:05.184Z,969.21
2016-03-26T01:55:05.187Z,969.23
2016-03-26T01:56:05.174Z,969.19
2016-03-26T01:57:05.176Z,969.24
2016-03-26T01:58:05.226Z,969.23
2016-03-26T01:59:05.181Z,969.26
2016-03-26T02:00:05.184Z,969.18
2016-03-26T02:01:05.188Z,969.25
2016-03-26T02:02:05.175Z,969.23
2016-03-26T02:03:05.178Z,969.24
2016-03-26T02:04:05.196Z,969.25
2016-03-26T02:05:05.183Z,969.21
2016-03-26T02:06:05.186Z,969.25
2016-03-26T02:07:05.188Z,969.23
2016-03-26T02:08:05.175Z,969.22
2016-03-26T02:09:05.194Z,969.21
2016-03-26T02:10:05.180Z,969.17
2016-03-26T02:11:05.183Z,969.2
2016-03-26T02:12:05.311Z,969.21
2016-03-26T02:13:05.189Z,969.18
2016-03-26T02:14:05.176Z,969.25
2016-03-26T02:15:05.194Z,969.2
2016-03-26T02:16:05.182Z,969.18
2016-03-26T02:17:05.200Z,969.23
2016-03-26T02:18:05.187Z,969.23
2016-03-26T02:19:05.174Z,969.23
2016-03-26T02:20:05.176Z,969.22
2016-03-26T02:21:05.179Z,969.21
2016-03-26T02:22:05.182Z,969.2
2016-03-26T02:23:05.184Z,969.23
2016-03-26T02:24:05.187Z,969.21
2016-03-26T02:25:05.173Z,969.23
2016-03-26T02:26:05.176Z,969.23
2016-03-26T02:27:05.195Z,969.21
2016-03-26T02:28:05.182Z,969.24
2016-03-26T02:29:05.185Z,969.27
2016-03-26T02:30:05.188Z,969.26
2016-03-26T02:31:05.190Z,969.28
2016-03-26T02:32:05.178Z,969.29
2016-03-26T02:33:05.180Z,969.29
2016-03-26T02:34:05.183Z,969.28
2016-03-26T02:35:05.185Z,969.24
2016-03-26T02:36:05.188Z,969.24
2016-03-26T02:37:05.191Z,969.23
2016-03-26T02:38:05.193Z,969.27
2016-03-26T02:39:05.181Z,969.28
2016-03-26T02:40:05.183Z,969.28
2016-03-26T02:41:05.186Z,969.3
2016-03-26T02:42:05.204Z,969.29
2016-03-26T02:43:05.191Z,969.3
2016-03-26T02:44:05.178Z,969.28
2016-03-26T02:45:05.181Z,969.31
2016-03-26T02:46:05.199Z,969.32
2016-03-26T02:47:05.186Z,969.33
2016-03-26T02:48:05.189Z,969.35
2016-03-26T02:49:05.191Z,969.34
2016-03-26T02:50:05.194Z,969.33
2016-03-26T02:51:05.181Z,969.36
2016-03-26T02:52:05.200Z,969.37
2016-03-26T02:53:05.187Z,969.42
2016-03-26T02:54:05.190Z,969.42
2016-03-26T02:55:05.193Z,969.41
2016-03-26T02:56:05.195Z,969.46
2016-03-26T02:57:05.198Z,969.41
2016-03-26T02:58:05.185Z,969.41
2016-03-26T02:59:05.187Z,969.44
2016-03-26T03:00:05.190Z,969.45
2016-03-26T03:01:05.193Z,969.46
2016-03-26T03:02:05.196Z,969.5
2016-03-26T03:03:05.181Z,969.48
2016-03-26T03:04:05.183Z,969.5
2016-03-26T03:05:05.186Z,969.53
2016-03-26T03:06:05.189Z,969.57
2016-03-26T03:07:05.191Z,969.57
2016-03-26T03:08:05.194Z,969.58
2016-03-26T03:09:05.197Z,969.61
2016-03-26T03:10:05.183Z,969.61
2016-03-26T03:11:05.186Z,969.65
2016-03-26T03:12:05.188Z,969.61
2016-03-26T03:13:05.192Z,969.67
2016-03-26T03:14:05.194Z,969.63
2016-03-26T03:15:05.196Z,969.69
2016-03-26T03:16:05.183Z,969.66
2016-03-26T03:17:05.186Z,969.66
2016-03-26T03:18:05.189Z,969.65
2016-03-26T03:19:05.191Z,969.62
2016-03-26T03:20:05.194Z,969.57
2016-03-26T03:21:05.197Z,969.57
2016-03-26T03:22:05.184Z,969.61
2016-03-26T03:23:05.187Z,969.6
2016-03-26T03:24:05.190Z,969.64
2016-03-26T03:25:05.192Z,969.65
2016-03-26T03:26:05.195Z,969.67
2016-03-26T03:27:05.198Z,969.65
2016-03-26T03:28:05.200Z,969.69
2016-03-26T03:29:05.187Z,969.74
2016-03-26T03:30:05.190Z,969.76
2016-03-26T03:31:05.193Z,969.81
2016-03-26T03:32:05.195Z,969.84
2016-03-26T03:33:05.198Z,969.87
2016-03-26T03:34:05.200Z,969.87
2016-03-26T03:35:05.188Z,969.87
2016-03-26T03:36:05.207Z,969.87
2016-03-26T03:37:05.193Z,969.86
2016-03-26T03:38:05.196Z,969.89
2016-03-26T03:39:05.199Z,969.91
2016-03-26T03:40:05.201Z,969.9
2016-03-26T03:41:05.189Z,969.92
2016-03-26T03:42:05.192Z,969.92
2016-03-26T03:43:05.195Z,969.92
2016-03-26T03:44:05.212Z,969.93
2016-03-26T03:45:05.200Z,969.93
2016-03-26T03:46:05.202Z,969.92
2016-03-26T03:47:05.189Z,969.95
2016-03-26T03:48:05.191Z,969.94
2016-03-26T03:49:05.194Z,970
2016-03-26T03:50:05.197Z,969.99
2016-03-26T03:51:05.200Z,969.99
2016-03-26T03:52:05.202Z,970
2016-03-26T03:53:05.205Z,969.99
2016-03-26T03:54:05.193Z,969.99
2016-03-26T03:55:05.195Z,969.98
2016-03-26T03:56:05.198Z,969.96
2016-03-26T03:57:05.201Z,969.97
2016-03-26T03:58:05.203Z,969.97
2016-03-26T03:59:05.207Z,969.94
2016-03-26T04:00:05.193Z,969.98
2016-03-26T04:01:05.195Z,969.94
2016-03-26T04:02:05.199Z,969.94
2016-03-26T04:03:05.201Z,969.97
2016-03-26T04:04:05.203Z,970.03
2016-03-26T04:05:05.206Z,970
2016-03-26T04:06:05.209Z,970.01
2016-03-26T04:07:05.195Z,970.01
2016-03-26T04:08:05.199Z,970.02
2016-03-26T04:09:05.201Z,970.06
2016-03-26T04:10:05.203Z,970.07
2016-03-26T04:11:05.207Z,970.09
2016-03-26T04:12:05.209Z,970.12
2016-03-26T04:13:05.196Z,970.11
2016-03-26T04:14:05.200Z,970.13
2016-03-26T04:15:05.217Z,970.12
2016-03-26T04:16:05.205Z,970.13
2016-03-26T04:17:05.208Z,970.16
2016-03-26T04:18:05.194Z,970.2
2016-03-26T04:19:05.197Z,970.2
2016-03-26T04:20:05.200Z,970.2
2016-03-26T04:21:05.202Z,970.19
2016-03-26T04:22:05.205Z,970.14
2016-03-26T04:23:05.191Z,970.16
2016-03-26T04:24:05.227Z,970.17
2016-03-26T04:25:05.197Z,970.17
2016-03-26T04:26:05.200Z,970.15
2016-03-26T04:27:05.202Z,970.18
2016-03-26T04:28:05.205Z,970.2
2016-03-26T04:29:05.208Z,970.23
2016-03-26T04:30:05.210Z,970.21
2016-03-26T04:31:05.198Z,970.23
2016-03-26T04:32:05.216Z,970.29
2016-03-26T04:33:05.204Z,970.21
2016-03-26T04:34:05.206Z,970.26
2016-03-26T04:35:05.193Z,970.27
2016-03-26T04:36:05.212Z,970.24
2016-03-26T04:37:05.198Z,970.26
2016-03-26T04:38:05.201Z,970.3
2016-03-26T04:39:05.204Z,970.33
2016-03-26T04:40:05.206Z,970.31
2016-03-26T04:41:05.210Z,970.36
2016-03-26T04:42:05.212Z,970.38
2016-03-26T04:43:05.199Z,970.37
2016-03-26T04:44:05.202Z,970.37
2016-03-26T04:45:05.205Z,970.35
2016-03-26T04:46:05.210Z,970.38
2016-03-26T04:47:05.214Z,970.4
2016-03-26T04:48:05.201Z,970.41
2016-03-26T04:49:05.203Z,970.44
2016-03-26T04:50:05.207Z,970.4
2016-03-26T04:51:05.209Z,970.42
2016-03-26T04:52:05.211Z,970.44
2016-03-26T04:53:05.215Z,970.44
2016-03-26T04:54:05.217Z,970.46
2016-03-26T04:55:05.204Z,970.47
2016-03-26T04:56:05.206Z,970.45
2016-03-26T04:57:05.209Z,970.48
2016-03-26T04:58:05.211Z,970.54
2016-03-26T04:59:05.215Z,970.54
2016-03-26T05:00:05.202Z,970.58
2016-03-26T05:01:05.204Z,970.56
2016-03-26T05:02:05.208Z,970.61
2016-03-26T05:03:05.210Z,970.6
2016-03-26T05:04:05.213Z,970.58
2016-03-26T05:05:05.216Z,970.6
2016-03-26T05:06:05.202Z,970.61
2016-03-26T05:07:05.205Z,970.6
2016-03-26T05:08:05.208Z,970.59
2016-03-26T05:09:05.210Z,970.57
2016-03-26T05:10:05.213Z,970.61
2016-03-26T05:11:05.216Z,970.63
2016-03-26T05:12:05.219Z,970.64
2016-03-26T05:13:05.205Z,970.6
2016-03-26T05:14:05.208Z,970.61
2016-03-26T05:15:05.211Z,970.6
2016-03-26T05:16:05.213Z,970.62
2016-03-26T05:17:05.215Z,970.62
2016-03-26T05:18:05.203Z,970.61
2016-03-26T05:19:05.206Z,970.64
2016-03-26T05:20:05.209Z,970.62
2016-03-26T05:21:05.212Z,970.65
2016-03-26T05:22:05.214Z,970.61
2016-03-26T05:23:05.201Z,970.67
2016-03-26T05:24:05.204Z,970.66
2016-03-26T05:25:05.206Z,970.67
2016-03-26T05:26:05.209Z,970.68
2016-03-26T05:27:05.212Z,970.67
2016-03-26T05:28:05.214Z,970.74
2016-03-26T05:29:05.218Z,970.72
2016-03-26T05:30:05.204Z,970.73
2016-03-26T05:31:05.206Z,970.74
2016-03-26T05:32:05.210Z,970.73
2016-03-26T05:33:05.212Z,970.76
2016-03-26T05:34:05.214Z,970.73
2016-03-26T05:35:05.217Z,970.74
2016-03-26T05:36:05.205Z,970.75
2016-03-26T05:37:05.207Z,970.79
2016-03-26T05:38:05.211Z,970.82
2016-03-26T05:39:05.213Z,970.79
2016-03-26T05:40:05.216Z,970.84
2016-03-26T05:41:05.219Z,970.84
2016-03-26T05:42:05.221Z,970.88
2016-03-26T05:43:05.207Z,970.88
2016-03-26T05:44:05.211Z,970.89
2016-03-26T05:45:05.213Z,970.89
2016-03-26T05:46:05.216Z,970.88
2016-03-26T05:47:05.219Z,970.89
2016-03-26T05:48:05.221Z,970.85
2016-03-26T05:49:05.224Z,970.84
2016-03-26T05:50:05.212Z,970.84
2016-03-26T05:51:05.214Z,970.88
2016-03-26T05:52:05.232Z,970.85
2016-03-26T05:53:05.247Z,970.9
2016-03-26T05:54:05.210Z,970.89
2016-03-26T05:55:05.215Z,970.88
2016-03-26T05:56:05.314Z,970.91
2016-03-26T05:57:05.211Z,970.9
2016-03-26T05:58:05.324Z,970.9
2016-03-26T05:59:05.217Z,970.93
2016-03-26T06:00:05.203Z,970.92
2016-03-26T06:01:05.206Z,970.89
2016-03-26T06:02:05.209Z,970.88
2016-03-26T06:03:05.212Z,970.9
2016-03-26T06:04:05.214Z,970.92
2016-03-26T06:05:05.217Z,970.93
2016-03-26T06:06:05.200Z,970.9
2016-03-26T06:07:05.198Z,970.91
2016-03-26T06:08:05.191Z,970.94
2016-03-26T06:09:05.186Z,970.93
2016-03-26T06:10:05.180Z,970.96
2016-03-26T06:11:05.162Z,971
2016-03-26T06:12:05.162Z,971.01
2016-03-26T06:13:05.177Z,971.01
2016-03-26T06:14:05.161Z,971.02
2016-03-26T06:15:05.144Z,971.04
2016-03-26T06:16:05.145Z,971.04
2016-03-26T06:17:05.146Z,971.04
2016-03-26T06:18:05.148Z,971.07
2016-03-26T06:19:05.150Z,971.07
2016-03-26T06:20:05.152Z,971.02
2016-03-26T06:21:05.154Z,971.03
2016-03-26T06:22:05.156Z,971.02
2016-03-26T06:23:05.143Z,970.99
2016-03-26T06:24:05.145Z,971.01
2016-03-26T06:25:05.147Z,971
2016-03-26T06:26:05.150Z,970.97
2016-03-26T06:27:05.153Z,971
2016-03-26T06:28:05.140Z,970.98
2016-03-26T06:29:05.143Z,970.99
2016-03-26T06:30:05.145Z,971
2016-03-26T06:31:05.147Z,971.03
2016-03-26T06:32:05.151Z,971
2016-03-26T06:33:05.153Z,971.03
2016-03-26T06:34:05.140Z,970.96
2016-03-26T06:35:05.143Z,970.96
2016-03-26T06:36:05.146Z,970.96
2016-03-26T06:37:05.149Z,970.93
2016-03-26T06:38:05.151Z,970.95
2016-03-26T06:39:05.154Z,971.02
2016-03-26T06:40:05.156Z,970.99
2016-03-26T06:41:05.159Z,970.97
2016-03-26T06:42:05.162Z,970.97
2016-03-26T06:43:05.196Z,970.94
2016-03-26T06:44:05.151Z,970.96
2016-03-26T06:45:05.155Z,970.96
2016-03-26T06:46:05.157Z,971
2016-03-26T06:47:05.159Z,971.03
2016-03-26T06:48:05.163Z,971.04
2016-03-26T06:49:05.149Z,971.03
2016-03-26T06:50:05.151Z,971.05
2016-03-26T06:51:05.155Z,971.07
2016-03-26T06:52:05.157Z,971.07
2016-03-26T06:53:05.160Z,971.08
2016-03-26T06:54:05.162Z,971.08
2016-03-26T06:55:05.165Z,971.07
2016-03-26T06:56:05.153Z,971.06
2016-03-26T06:57:05.155Z,971.1
2016-03-26T06:58:05.205Z,971.09
2016-03-26T06:59:05.160Z,971.08
2016-03-26T07:00:05.164Z,971.1
2016-03-26T07:01:05.166Z,971.07
2016-03-26T07:02:05.169Z,971.04
2016-03-26T07:03:05.172Z,971.05
2016-03-26T07:04:05.158Z,971.04
2016-03-26T07:05:05.161Z,971.06
2016-03-26T07:06:05.164Z,971.05
2016-03-26T07:07:05.166Z,971.02
2016-03-26T07:08:05.169Z,971
2016-03-26T07:09:05.172Z,971.03
2016-03-26T07:10:05.175Z,971.04
2016-03-26T07:11:05.177Z,971.02
2016-03-26T07:12:05.179Z,971.03
2016-03-26T07:13:05.261Z,971.08
2016-03-26T07:14:05.169Z,971.08
2016-03-26T07:15:05.171Z,971.07
2016-03-26T07:16:05.175Z,971.05
2016-03-26T07:17:05.224Z,971.09
2016-03-26T07:18:05.180Z,971.06
2016-03-26T07:19:05.183Z,971.05
2016-03-26T07:20:05.185Z,971.07
2016-03-26T07:21:05.188Z,971.03
2016-03-26T07:22:05.176Z,971.03
2016-03-26T07:23:05.178Z,971.04
2016-03-26T07:24:05.181Z,971.04
2016-03-26T07:25:05.184Z,971.03
2016-03-26T07:26:05.187Z,971.06
2016-03-26T07:27:05.189Z,971.07
2016-03-26T07:28:05.191Z,971.04
2016-03-26T07:29:05.195Z,971.08
2016-03-26T07:30:05.197Z,971.11
2016-03-26T07:31:05.183Z,971.12
2016-03-26T07:32:05.187Z,971.07
2016-03-26T07:33:05.189Z,971.08
2016-03-26T07:34:05.192Z,971.07
2016-03-26T07:35:05.195Z,971.1
2016-03-26T07:36:05.197Z,971.05
2016-03-26T07:37:05.200Z,971.1
2016-03-26T07:38:05.203Z,971.11
2016-03-26T07:39:05.205Z,971.11
2016-03-26T07:40:05.193Z,971.14
2016-03-26T07:41:05.196Z,971.16
2016-03-26T07:42:05.199Z,971.17
2016-03-26T07:43:05.201Z,971.18
2016-03-26T07:44:05.204Z,971.18
2016-03-26T07:45:05.207Z,971.2
2016-03-26T07:46:05.209Z,971.19
2016-03-26T07:47:05.211Z,971.2
2016-03-26T07:48:05.215Z,971.23
2016-03-26T07:49:05.217Z,971.23
2016-03-26T07:50:05.220Z,971.24
2016-03-26T07:51:05.207Z,971.25
2016-03-26T07:52:05.209Z,971.23
2016-03-26T07:53:05.212Z,971.21
2016-03-26T07:54:05.215Z,971.2
2016-03-26T07:55:05.217Z,971.22
2016-03-26T07:56:05.220Z,971.22
2016-03-26T07:57:05.223Z,971.24
2016-03-26T07:58:05.226Z,971.24
2016-03-26T07:59:05.229Z,971.26
2016-03-26T08:00:05.215Z,971.2
2016-03-26T08:01:05.218Z,971.23
2016-03-26T08:02:05.220Z,971.23
2016-03-26T08:03:05.222Z,971.2
2016-03-26T08:04:05.226Z,971.2
2016-03-26T08:05:05.228Z,971.21
2016-03-26T08:06:05.231Z,971.18
2016-03-26T08:07:05.234Z,971.2
2016-03-26T08:08:05.236Z,971.18
2016-03-26T08:09:05.239Z,971.2
2016-03-26T08:10:05.242Z,971.19
2016-03-26T08:11:05.229Z,971.19
2016-03-26T08:12:05.247Z,971.21
2016-03-26T08:13:05.235Z,971.2
2016-03-26T08:14:05.252Z,971.23
2016-03-26T08:15:05.240Z,971.18
2016-03-26T08:16:05.243Z,971.19
2016-03-26T08:17:05.246Z,971.21
2016-03-26T08:18:05.248Z,971.2
2016-03-26T08:19:05.250Z,971.19
2016-03-26T08:20:05.269Z,971.19
2016-03-26T08:21:05.256Z,971.23
2016-03-26T08:22:05.274Z,971.17
2016-03-26T08:23:05.262Z,971.16
2016-03-26T08:24:05.279Z,971.12
2016-03-26T08:25:05.267Z,971.15
2016-03-26T08:26:05.270Z,971.15
2016-03-26T08:27:05.273Z,971.1
2016-03-26T08:28:05.275Z,971.1
2016-03-26T08:29:05.278Z,971.09
2016-03-26T08:30:05.281Z,971.11
2016-03-26T08:31:05.298Z,971.13
2016-03-26T08:32:05.286Z,971.1
2016-03-26T08:33:05.289Z,971.11
2016-03-26T08:34:05.291Z,971.09
2016-03-26T08:35:05.294Z,971.12
2016-03-26T08:36:05.296Z,971.11
2016-03-26T08:37:05.300Z,971.09
2016-03-26T08:38:05.302Z,971.1
2016-03-26T08:39:05.304Z,971.08
2016-03-26T08:40:05.308Z,971.08
2016-03-26T08:41:05.298Z,971.07
2016-03-26T08:42:05.301Z,971.09
2016-03-26T08:43:05.304Z,971.1
2016-03-26T08:44:05.306Z,971.09
2016-03-26T08:45:05.309Z,971.04
2016-03-26T08:46:05.311Z,971.03
2016-03-26T08:47:05.314Z,971.08
2016-03-26T08:48:05.317Z,971.07
2016-03-26T08:49:05.335Z,971.05
2016-03-26T08:50:05.385Z,971.1
2016-03-26T08:51:05.325Z,971.08
2016-03-26T08:52:05.328Z,971.13
2016-03-26T08:53:05.330Z,971.12
2016-03-26T08:54:05.333Z,971.1
2016-03-26T08:55:05.352Z,971.13
2016-03-26T08:56:05.338Z,971.1
2016-03-26T08:57:05.342Z,971.11
2016-03-26T08:58:05.360Z,971.09
2016-03-26T08:59:05.363Z,971.06
2016-03-26T09:00:05.350Z,971.07
2016-03-26T09:01:05.368Z,971.08
2016-03-26T09:02:05.370Z,971.06
2016-03-26T09:03:05.373Z,971.03
2016-03-26T09:04:05.376Z,971.06
2016-03-26T09:05:05.379Z,971.08
2016-03-26T09:06:05.381Z,971.06
2016-03-26T09:07:05.399Z,971.04
2016-03-26T09:08:05.386Z,971.04
2016-03-26T09:09:05.390Z,971.03
2016-03-26T09:10:05.392Z,971.01
2016-03-26T09:11:05.395Z,970.97
2016-03-26T09:12:05.413Z,971.01
2016-03-26T09:13:05.415Z,971.01
2016-03-26T09:14:05.418Z,970.98
2016-03-26T09:15:05.420Z,971.02
2016-03-26T09:16:05.423Z,970.99
2016-03-26T09:17:05.426Z,970.95
2016-03-26T09:18:05.429Z,970.97
2016-03-26T09:19:05.431Z,971
2016-03-26T09:20:05.434Z,970.96
2016-03-26T09:21:05.437Z,970.97
2016-03-26T09:22:05.439Z,970.97
2016-03-26T09:23:05.442Z,970.92
2016-03-26T09:24:05.445Z,970.93
2016-03-26T09:25:05.447Z,970.95
2016-03-26T09:26:05.450Z,970.95
2016-03-26T09:27:05.453Z,970.93
2016-03-26T09:28:05.455Z,970.89
2016-03-26T09:29:05.458Z,970.91
2016-03-26T09:30:05.461Z,970.91
2016-03-26T09:31:05.479Z,970.93
2016-03-26T09:32:05.482Z,970.88
2016-03-26T09:33:05.485Z,970.87
2016-03-26T09:34:05.488Z,970.86
2016-03-26T09:35:05.490Z,970.86
2016-03-26T09:36:05.493Z,970.86
2016-03-26T09:37:05.496Z,970.83
2016-03-26T09:38:05.498Z,970.82
2016-03-26T09:39:05.501Z,970.89
2016-03-26T09:40:05.504Z,970.89
2016-03-26T09:41:05.506Z,970.86
2016-03-26T09:42:05.509Z,970.85
2016-03-26T09:43:05.512Z,970.82
2016-03-26T09:44:05.514Z,970.83
2016-03-26T09:45:05.517Z,970.8
2016-03-26T09:46:05.519Z,970.79
2016-03-26T09:47:05.537Z,970.81
2016-03-26T09:48:05.540Z,970.78
2016-03-26T09:49:05.542Z,970.77
2016-03-26T09:50:05.545Z,970.81
2016-03-26T09:51:05.548Z,970.77
2016-03-26T09:52:05.551Z,970.74
2016-03-26T09:53:05.553Z,970.72
2016-03-26T09:54:05.556Z,970.68
2016-03-26T09:55:05.559Z,970.65
2016-03-26T09:56:05.562Z,970.67
2016-03-26T09:57:05.564Z,970.63
2016-03-26T09:58:05.567Z,970.66
2016-03-26T09:59:05.570Z,970.62
2016-03-26T10:00:05.588Z,970.65
2016-03-26T10:01:05.575Z,970.67
2016-03-26T10:02:05.594Z,970.67
2016-03-26T10:03:05.596Z,970.63
2016-03-26T10:04:05.600Z,970.62
2016-03-26T10:05:05.602Z,970.62
2016-03-26T10:06:05.604Z,970.63
2016-03-26T10:07:05.607Z,970.62
2016-03-26T10:08:05.610Z,970.62
2016-03-26T10:09:05.613Z,970.57
2016-03-26T10:10:05.615Z,970.55
2016-03-26T10:11:05.618Z,970.54
2016-03-26T10:12:05.620Z,970.55
2016-03-26T10:13:05.624Z,970.55
2016-03-26T10:14:05.626Z,970.48
2016-03-26T10:15:05.645Z,970.49
2016-03-26T10:16:05.632Z,970.48
2016-03-26T10:17:05.651Z,970.44
2016-03-26T10:18:05.653Z,970.39
2016-03-26T10:19:05.655Z,970.42
2016-03-26T10:20:05.658Z,970.39
2016-03-26T10:21:05.661Z,970.36
2016-03-26T10:22:05.664Z,970.35
2016-03-26T10:23:05.666Z,970.34
2016-03-26T10:24:05.669Z,970.31
2016-03-26T10:25:05.672Z,970.28
2016-03-26T10:26:05.674Z,970.23
2016-03-26T10:27:05.677Z,970.26
2016-03-26T10:28:05.680Z,970.26
2016-03-26T10:29:05.683Z,970.18
2016-03-26T10:30:05.685Z,970.17
2016-03-26T10:31:05.703Z,970.19
2016-03-26T10:32:05.690Z,970.16
2016-03-26T10:33:05.708Z,970.14
2016-03-26T10:34:05.711Z,970.15
2016-03-26T10:35:05.714Z,970.17
2016-03-26T10:36:05.716Z,970.14
2016-03-26T10:37:05.719Z,970.13
2016-03-26T10:38:05.722Z,970.12
2016-03-26T10:39:05.724Z,970.11
2016-03-26T10:40:05.727Z,970.11
2016-03-26T10:41:05.730Z,970.04
2016-03-26T10:42:05.738Z,970.09
2016-03-26T10:43:05.740Z,970.05
2016-03-26T10:44:05.743Z,970.07
2016-03-26T10:45:05.745Z,970.02
2016-03-26T10:46:05.748Z,970.05
2016-03-26T10:47:05.751Z,970
2016-03-26T10:48:05.754Z,970.01
2016-03-26T10:49:05.756Z,970.03
2016-03-26T10:50:05.775Z,969.98
2016-03-26T10:51:05.761Z,969.96
2016-03-26T10:52:05.765Z,969.94
2016-03-26T10:53:05.767Z,969.95
2016-03-26T10:54:05.848Z,969.9
2016-03-26T10:55:05.788Z,969.91
2016-03-26T10:56:05.791Z,969.89
2016-03-26T10:57:05.794Z,969.91
2016-03-26T10:58:05.797Z,969.88
2016-03-26T10:59:05.799Z,969.81
2016-03-26T11:00:05.802Z,969.82
2016-03-26T11:01:05.804Z,969.79
2016-03-26T11:02:05.807Z,969.77
2016-03-26T11:03:05.810Z,969.79
2016-03-26T11:04:05.812Z,969.77
2016-03-26T11:05:05.815Z,969.72
2016-03-26T11:06:05.818Z,969.7
2016-03-26T11:07:05.821Z,969.72
2016-03-26T11:08:05.823Z,969.73
2016-03-26T11:09:05.826Z,969.72
2016-03-26T11:10:05.844Z,969.66
2016-03-26T11:11:05.832Z,969.66
2016-03-26T11:12:05.849Z,969.63
2016-03-26T11:13:05.852Z,969.68
2016-03-26T11:14:05.854Z,969.63
2016-03-26T11:15:05.857Z,969.62
2016-03-26T11:16:05.860Z,969.63
2016-03-26T11:17:05.863Z,969.6
2016-03-26T11:18:05.865Z,969.59
2016-03-26T11:19:05.868Z,969.6
2016-03-26T11:20:05.871Z,969.57
2016-03-26T11:21:05.873Z,969.6
2016-03-26T11:22:05.876Z,969.57
2016-03-26T11:23:05.879Z,969.57
2016-03-26T11:24:05.881Z,969.54
2016-03-26T11:25:05.884Z,969.5
2016-03-26T11:26:05.887Z,969.48
2016-03-26T11:27:05.889Z,969.48
2016-03-26T11:28:05.892Z,969.46
2016-03-26T11:29:05.927Z,969.48
2016-03-26T11:30:05.898Z,969.45
2016-03-26T11:31:05.900Z,969.43
2016-03-26T11:32:05.903Z,969.41
2016-03-26T11:33:05.921Z,969.4
2016-03-26T11:34:05.908Z,969.39
2016-03-26T11:35:05.927Z,969.36
2016-03-26T11:36:05.930Z,969.38
2016-03-26T11:37:05.932Z,969.4
2016-03-26T11:38:05.935Z,969.39
2016-03-26T11:39:05.937Z,969.37
2016-03-26T11:40:05.941Z,969.36
2016-03-26T11:41:05.943Z,969.36
2016-03-26T11:42:05.946Z,969.34
2016-03-26T11:43:05.948Z,969.32
2016-03-26T11:44:06.029Z,969.26
2016-03-26T11:45:05.953Z,969.27
2016-03-26T11:46:05.957Z,969.23
2016-03-26T11:47:05.959Z,969.2
2016-03-26T11:48:05.962Z,969.21
2016-03-26T11:49:05.964Z,969.21
2016-03-26T11:50:05.968Z,969.22
2016-03-26T11:51:05.970Z,969.21
2016-03-26T11:52:05.973Z,969.2
2016-03-26T11:53:05.975Z,969.2
2016-03-26T11:54:05.978Z,969.2
2016-03-26T11:55:05.980Z,969.16
2016-03-26T11:56:05.984Z,969.16
2016-03-26T11:57:05.986Z,969.13
2016-03-26T11:58:05.989Z,969.15
2016-03-26T11:59:06.069Z,969.14
2016-03-26T12:00:05.995Z,969.15
2016-03-26T12:01:05.997Z,969.13
2016-03-26T12:02:06.016Z,969.18
2016-03-26T12:03:06.002Z,969.1
2016-03-26T12:04:06.005Z,969.07
2016-03-26T12:05:06.023Z,969.04
2016-03-26T12:06:06.026Z,969.04
2016-03-26T12:07:06.029Z,969.04
2016-03-26T12:08:06.032Z,968.98
2016-03-26T12:09:06.034Z,968.99
2016-03-26T12:10:06.021Z,969.01
2016-03-26T12:11:06.040Z,968.99
2016-03-26T12:12:06.043Z,968.98
2016-03-26T12:13:06.045Z,968.94
2016-03-26T12:14:06.203Z,968.9
2016-03-26T12:15:06.050Z,968.93
2016-03-26T12:16:06.053Z,968.89
2016-03-26T12:17:06.056Z,968.89
2016-03-26T12:18:06.059Z,968.85
2016-03-26T12:19:06.061Z,968.85
2016-03-26T12:20:06.079Z,968.85
2016-03-26T12:21:06.067Z,968.84
2016-03-26T12:22:06.070Z,968.84
2016-03-26T12:23:06.072Z,968.8
2016-03-26T12:24:06.075Z,968.72
2016-03-26T12:25:06.077Z,968.7
2016-03-26T12:26:06.080Z,968.72
2016-03-26T12:27:06.082Z,968.7
2016-03-26T12:28:06.086Z,968.65
2016-03-26T12:29:06.103Z,968.69
2016-03-26T12:30:06.091Z,968.66
2016-03-26T12:31:06.093Z,968.62
2016-03-26T12:32:06.097Z,968.6